sensor_id;sensor_type;location;lat;lon;timestamp;P1;durP1;ratioP1;P2;durP2;ratioP2
60078;SDS011;45951;45.824;8.824;2023-04-25T00:03:28;5.32;;;3.22;;
60078;SDS011;45951;45.824;8.824;2023-04-25T00:09:29;5.30;;;2.10;;
60078;SDS011;45951;45.824;8.824;2023-04-25T00:15:29;4.35;;;2.28;;
60078;SDS011;45951;45.824;8.824;2023-04-25T00:21:32;3.90;;;2.20;;
60078;SDS011;45951;45.824;8.824;2023-04-25T00:27:33;4.23;;;2.27;;
60078;SDS011;45951;45.824;8.824;2023-04-25T00:33:33;4.88;;;2.40;;
60078;SDS011;45951;45.824;8.824;2023-04-25T00:39:33;4.28;;;2.20;;
60078;SDS011;45951;45.824;8.824;2023-04-25T00:45:33;3.92;;;2.38;;
60078;SDS011;45951;45.824;8.824;2023-04-25T00:51:37;3.65;;;2.30;;
60078;SDS011;45951;45.824;8.824;2023-04-25T00:57:38;2.63;;;1.90;;
60078;SDS011;45951;45.824;8.824;2023-04-25T01:03:38;3.10;;;1.92;;
60078;SDS011;45951;45.824;8.824;2023-04-25T01:09:40;2.30;;;1.85;;
60078;SDS011;45951;45.824;8.824;2023-04-25T01:15:40;3.28;;;2.00;;
60078;SDS011;45951;45.824;8.824;2023-04-25T01:21:41;2.97;;;1.85;;
60078;SDS011;45951;45.824;8.824;2023-04-25T01:27:41;2.55;;;1.98;;
60078;SDS011;45951;45.824;8.824;2023-04-25T01:33:41;2.97;;;1.80;;
60078;SDS011;45951;45.824;8.824;2023-04-25T01:39:42;1.92;;;1.10;;
60078;SDS011;45951;45.824;8.824;2023-04-25T01:45:42;2.33;;;1.25;;
60078;SDS011;45951;45.824;8.824;2023-04-25T01:51:42;1.65;;;1.10;;
60078;SDS011;45951;45.824;8.824;2023-04-25T01:57:43;1.23;;;1.00;;
60078;SDS011;45951;45.824;8.824;2023-04-25T02:03:43;1.30;;;1.20;;
60078;SDS011;45951;45.824;8.824;2023-04-25T02:09:43;1.92;;;1.20;;
60078;SDS011;45951;45.824;8.824;2023-04-25T02:15:43;3.42;;;1.45;;
60078;SDS011;45951;45.824;8.824;2023-04-25T02:21:43;1.67;;;1.00;;
60078;SDS011;45951;45.824;8.824;2023-04-25T02:27:44;1.85;;;0.95;;
60078;SDS011;45951;45.824;8.824;2023-04-25T02:33:44;2.90;;;1.20;;
60078;SDS011;45951;45.824;8.824;2023-04-25T02:39:44;1.27;;;1.10;;
60078;SDS011;45951;45.824;8.824;2023-04-25T02:45:45;1.58;;;1.13;;
60078;SDS011;45951;45.824;8.824;2023-04-25T02:51:45;2.75;;;1.48;;
60078;SDS011;45951;45.824;8.824;2023-04-25T02:57:45;1.77;;;1.27;;
60078;SDS011;45951;45.824;8.824;2023-04-25T03:03:45;1.95;;;1.27;;
60078;SDS011;45951;45.824;8.824;2023-04-25T03:09:45;1.75;;;1.08;;
60078;SDS011;45951;45.824;8.824;2023-04-25T03:15:46;1.10;;;1.00;;
60078;SDS011;45951;45.824;8.824;2023-04-25T03:21:46;1.23;;;1.13;;
60078;SDS011;45951;45.824;8.824;2023-04-25T03:27:46;2.50;;;1.17;;
60078;SDS011;45951;45.824;8.824;2023-04-25T03:33:46;1.88;;;1.30;;
60078;SDS011;45951;45.824;8.824;2023-04-25T03:39:46;1.42;;;1.00;;
60078;SDS011;45951;45.824;8.824;2023-04-25T03:45:47;2.72;;;1.30;;
60078;SDS011;45951;45.824;8.824;2023-04-25T03:51:47;1.45;;;1.20;;
60078;SDS011;45951;45.824;8.824;2023-04-25T03:57:47;3.42;;;1.38;;
60078;SDS011;45951;45.824;8.824;2023-04-25T04:03:47;3.00;;;1.40;;
60078;SDS011;45951;45.824;8.824;2023-04-25T04:09:47;2.30;;;1.20;;
60078;SDS011;45951;45.824;8.824;2023-04-25T04:15:48;2.78;;;1.50;;
60078;SDS011;45951;45.824;8.824;2023-04-25T04:21:48;1.60;;;1.30;;
60078;SDS011;45951;45.824;8.824;2023-04-25T04:27:48;3.45;;;1.65;;
60078;SDS011;45951;45.824;8.824;2023-04-25T04:33:51;3.33;;;1.30;;
60078;SDS011;45951;45.824;8.824;2023-04-25T04:39:52;2.30;;;1.35;;
60078;SDS011;45951;45.824;8.824;2023-04-25T04:45:52;3.28;;;1.60;;
60078;SDS011;45951;45.824;8.824;2023-04-25T04:51:52;2.00;;;1.33;;
60078;SDS011;45951;45.824;8.824;2023-04-25T04:57:54;1.88;;;1.30;;
60078;SDS011;45951;45.824;8.824;2023-04-25T05:03:54;2.22;;;1.50;;
60078;SDS011;45951;45.824;8.824;2023-04-25T05:09:59;1.65;;;1.23;;
60078;SDS011;45951;45.824;8.824;2023-04-25T05:16:00;1.95;;;1.30;;
60078;SDS011;45951;45.824;8.824;2023-04-25T05:22:00;3.27;;;1.70;;
60078;SDS011;45951;45.824;8.824;2023-04-25T05:28:01;3.58;;;1.60;;
60078;SDS011;45951;45.824;8.824;2023-04-25T05:34:01;2.08;;;1.48;;
60078;SDS011;45951;45.824;8.824;2023-04-25T05:40:02;4.30;;;2.03;;
60078;SDS011;45951;45.824;8.824;2023-04-25T05:46:06;3.20;;;1.75;;
60078;SDS011;45951;45.824;8.824;2023-04-25T05:52:06;2.60;;;1.50;;
60078;SDS011;45951;45.824;8.824;2023-04-25T05:58:06;3.28;;;1.77;;
60078;SDS011;45951;45.824;8.824;2023-04-25T06:04:07;3.63;;;1.92;;
60078;SDS011;45951;45.824;8.824;2023-04-25T06:10:07;4.75;;;2.53;;
60078;SDS011;45951;45.824;8.824;2023-04-25T06:16:07;2.75;;;2.00;;
60078;SDS011;45951;45.824;8.824;2023-04-25T06:22:08;3.40;;;2.20;;
60078;SDS011;45951;45.824;8.824;2023-04-25T06:28:08;5.13;;;2.55;;
60078;SDS011;45951;45.824;8.824;2023-04-25T06:34:09;4.90;;;3.58;;
60078;SDS011;45951;45.824;8.824;2023-04-25T06:40:09;3.38;;;2.60;;
60078;SDS011;45951;45.824;8.824;2023-04-25T06:46:10;4.68;;;2.90;;
60078;SDS011;45951;45.824;8.824;2023-04-25T06:52:10;4.13;;;2.50;;
60078;SDS011;45951;45.824;8.824;2023-04-25T06:58:11;5.93;;;2.67;;
60078;SDS011;45951;45.824;8.824;2023-04-25T07:04:11;3.13;;;2.60;;
60078;SDS011;45951;45.824;8.824;2023-04-25T07:10:11;3.63;;;2.70;;
60078;SDS011;45951;45.824;8.824;2023-04-25T07:16:11;3.72;;;2.90;;
60078;SDS011;45951;45.824;8.824;2023-04-25T07:22:11;4.55;;;2.90;;
60078;SDS011;45951;45.824;8.824;2023-04-25T07:28:12;4.70;;;2.75;;
60078;SDS011;45951;45.824;8.824;2023-04-25T07:34:12;4.03;;;2.50;;
60078;SDS011;45951;45.824;8.824;2023-04-25T07:40:12;3.53;;;2.40;;
60078;SDS011;45951;45.824;8.824;2023-04-25T07:46:12;3.30;;;2.30;;
60078;SDS011;45951;45.824;8.824;2023-04-25T07:52:13;3.55;;;2.28;;
60078;SDS011;45951;45.824;8.824;2023-04-25T07:58:13;4.13;;;2.03;;
60078;SDS011;45951;45.824;8.824;2023-04-25T08:04:15;3.80;;;2.28;;
60078;SDS011;45951;45.824;8.824;2023-04-25T08:10:15;4.00;;;2.20;;
60078;SDS011;45951;45.824;8.824;2023-04-25T08:16:15;3.97;;;2.03;;
60078;SDS011;45951;45.824;8.824;2023-04-25T08:22:15;2.22;;;1.80;;
60078;SDS011;45951;45.824;8.824;2023-04-25T08:28:16;6.70;;;2.65;;
60078;SDS011;45951;45.824;8.824;2023-04-25T08:34:16;4.22;;;2.00;;
60078;SDS011;45951;45.824;8.824;2023-04-25T08:40:16;3.40;;;2.15;;
60078;SDS011;45951;45.824;8.824;2023-04-25T08:46:19;5.13;;;2.75;;
60078;SDS011;45951;45.824;8.824;2023-04-25T08:52:23;2.75;;;1.88;;
60078;SDS011;45951;45.824;8.824;2023-04-25T08:58:24;1.73;;;1.50;;
60078;SDS011;45951;45.824;8.824;2023-04-25T09:04:24;3.78;;;1.85;;
60078;SDS011;45951;45.824;8.824;2023-04-25T09:10:25;4.03;;;1.95;;
60078;SDS011;45951;45.824;8.824;2023-04-25T09:16:25;2.75;;;2.00;;
60078;SDS011;45951;45.824;8.824;2023-04-25T09:22:25;5.47;;;2.60;;
60078;SDS011;45951;45.824;8.824;2023-04-25T09:28:26;2.63;;;1.95;;
60078;SDS011;45951;45.824;8.824;2023-04-25T09:34:27;1.92;;;1.50;;
60078;SDS011;45951;45.824;8.824;2023-04-25T09:40:27;4.05;;;2.40;;
60078;SDS011;45951;45.824;8.824;2023-04-25T09:46:33;4.38;;;2.35;;
60078;SDS011;45951;45.824;8.824;2023-04-25T09:52:34;3.17;;;2.20;;
60078;SDS011;45951;45.824;8.824;2023-04-25T09:58:35;2.58;;;1.88;;
60078;SDS011;45951;45.824;8.824;2023-04-25T10:04:36;2.75;;;2.03;;
60078;SDS011;45951;45.824;8.824;2023-04-25T10:10:37;4.22;;;2.20;;
60078;SDS011;45951;45.824;8.824;2023-04-25T10:16:40;3.67;;;2.17;;
60078;SDS011;45951;45.824;8.824;2023-04-25T10:22:41;2.03;;;1.70;;
60078;SDS011;45951;45.824;8.824;2023-04-25T10:28:58;4.32;;;2.83;;
60078;SDS011;45951;45.824;8.824;2023-04-25T10:35:10;2.58;;;1.95;;
60078;SDS011;45951;45.824;8.824;2023-04-25T10:41:10;4.13;;;2.20;;
60078;SDS011;45951;45.824;8.824;2023-04-25T10:47:11;3.58;;;2.45;;
60078;SDS011;45951;45.824;8.824;2023-04-25T10:53:14;3.42;;;2.30;;
60078;SDS011;45951;45.824;8.824;2023-04-25T10:59:15;5.40;;;3.60;;
60078;SDS011;45951;45.824;8.824;2023-04-25T11:05:32;4.28;;;2.65;;
60078;SDS011;45951;45.824;8.824;2023-04-25T11:11:32;3.03;;;1.80;;
60078;SDS011;45951;45.824;8.824;2023-04-25T11:17:36;3.50;;;1.92;;
60078;SDS011;45951;45.824;8.824;2023-04-25T11:23:36;3.95;;;2.13;;
60078;SDS011;45951;45.824;8.824;2023-04-25T11:29:36;4.65;;;2.10;;
60078;SDS011;45951;45.824;8.824;2023-04-25T11:35:36;2.85;;;1.90;;
60078;SDS011;45951;45.824;8.824;2023-04-25T11:41:40;5.03;;;2.53;;
60078;SDS011;45951;45.824;8.824;2023-04-25T11:47:41;3.00;;;2.10;;
60078;SDS011;45951;45.824;8.824;2023-04-25T11:53:44;4.85;;;2.25;;
60078;SDS011;45951;45.824;8.824;2023-04-25T11:59:44;2.00;;;1.30;;
60078;SDS011;45951;45.824;8.824;2023-04-25T12:05:45;2.38;;;1.20;;
60078;SDS011;45951;45.824;8.824;2023-04-25T12:11:46;3.60;;;1.13;;
60078;SDS011;45951;45.824;8.824;2023-04-25T12:17:47;2.65;;;1.20;;
60078;SDS011;45951;45.824;8.824;2023-04-25T12:23:47;2.05;;;1.42;;
60078;SDS011;45951;45.824;8.824;2023-04-25T12:29:51;1.30;;;1.00;;
60078;SDS011;45951;45.824;8.824;2023-04-25T12:35:55;2.58;;;1.38;;
60078;SDS011;45951;45.824;8.824;2023-04-25T12:41:56;1.33;;;0.85;;
60078;SDS011;45951;45.824;8.824;2023-04-25T12:47:56;1.45;;;1.20;;
60078;SDS011;45951;45.824;8.824;2023-04-25T12:53:56;2.05;;;1.10;;
60078;SDS011;45951;45.824;8.824;2023-04-25T12:59:56;1.65;;;1.08;;
60078;SDS011;45951;45.824;8.824;2023-04-25T13:05:56;1.65;;;1.00;;
60078;SDS011;45951;45.824;8.824;2023-04-25T13:11:57;1.08;;;0.98;;
60078;SDS011;45951;45.824;8.824;2023-04-25T13:17:57;1.10;;;0.90;;
60078;SDS011;45951;45.824;8.824;2023-04-25T13:23:57;1.00;;;0.88;;
60078;SDS011;45951;45.824;8.824;2023-04-25T13:29:58;1.48;;;1.00;;
60078;SDS011;45951;45.824;8.824;2023-04-25T13:36:00;1.55;;;1.00;;
60078;SDS011;45951;45.824;8.824;2023-04-25T13:42:00;1.85;;;0.88;;
60078;SDS011;45951;45.824;8.824;2023-04-25T13:48:02;0.95;;;0.90;;
60078;SDS011;45951;45.824;8.824;2023-04-25T13:54:02;0.93;;;0.90;;
60078;SDS011;45951;45.824;8.824;2023-04-25T14:00:03;2.47;;;1.10;;
60078;SDS011;45951;45.824;8.824;2023-04-25T14:12:08;2.78;;;0.90;;
60078;SDS011;45951;45.824;8.824;2023-04-25T14:18:08;0.82;;;0.70;;
60078;SDS011;45951;45.824;8.824;2023-04-25T14:24:09;2.80;;;1.00;;
60078;SDS011;45951;45.824;8.824;2023-04-25T14:30:11;2.15;;;0.77;;
60078;SDS011;45951;45.824;8.824;2023-04-25T14:36:11;1.42;;;0.90;;
60078;SDS011;45951;45.824;8.824;2023-04-25T14:42:11;1.13;;;0.80;;
60078;SDS011;45951;45.824;8.824;2023-04-25T14:48:12;1.10;;;0.82;;
60078;SDS011;45951;45.824;8.824;2023-04-25T14:54:12;0.85;;;0.70;;
60078;SDS011;45951;45.824;8.824;2023-04-25T15:00:13;0.70;;;0.70;;
60078;SDS011;45951;45.824;8.824;2023-04-25T15:06:16;1.73;;;0.90;;
60078;SDS011;45951;45.824;8.824;2023-04-25T15:12:16;2.38;;;1.13;;
60078;SDS011;45951;45.824;8.824;2023-04-25T15:18:17;0.75;;;0.75;;
60078;SDS011;45951;45.824;8.824;2023-04-25T15:24:17;0.85;;;0.80;;
60078;SDS011;45951;45.824;8.824;2023-04-25T15:30:18;0.97;;;0.93;;
60078;SDS011;45951;45.824;8.824;2023-04-25T15:36:19;0.65;;;0.65;;
60078;SDS011;45951;45.824;8.824;2023-04-25T15:42:20;1.33;;;0.90;;
60078;SDS011;45951;45.824;8.824;2023-04-25T15:48:20;0.85;;;0.80;;
60078;SDS011;45951;45.824;8.824;2023-04-25T15:54:21;1.73;;;1.00;;
60078;SDS011;45951;45.824;8.824;2023-04-25T16:00:21;0.80;;;0.70;;
60078;SDS011;45951;45.824;8.824;2023-04-25T16:06:21;2.28;;;1.20;;
60078;SDS011;45951;45.824;8.824;2023-04-25T16:12:22;1.58;;;0.93;;
60078;SDS011;45951;45.824;8.824;2023-04-25T16:18:22;2.25;;;1.02;;
60078;SDS011;45951;45.824;8.824;2023-04-25T16:24:22;1.80;;;1.15;;
60078;SDS011;45951;45.824;8.824;2023-04-25T16:30:22;0.75;;;0.75;;
60078;SDS011;45951;45.824;8.824;2023-04-25T16:36:22;2.83;;;1.17;;
60078;SDS011;45951;45.824;8.824;2023-04-25T16:42:23;1.52;;;0.80;;
60078;SDS011;45951;45.824;8.824;2023-04-25T16:48:23;1.38;;;0.90;;
60078;SDS011;45951;45.824;8.824;2023-04-25T16:54:23;0.85;;;0.85;;
60078;SDS011;45951;45.824;8.824;2023-04-25T17:00:26;1.38;;;1.10;;
60078;SDS011;45951;45.824;8.824;2023-04-25T17:06:27;1.63;;;0.93;;
60078;SDS011;45951;45.824;8.824;2023-04-25T17:12:28;3.00;;;0.90;;
60078;SDS011;45951;45.824;8.824;2023-04-25T17:18:30;1.38;;;0.75;;
60078;SDS011;45951;45.824;8.824;2023-04-25T17:24:31;2.97;;;1.25;;
60078;SDS011;45951;45.824;8.824;2023-04-25T17:30:31;1.75;;;0.82;;
60078;SDS011;45951;45.824;8.824;2023-04-25T17:36:31;1.35;;;0.85;;
60078;SDS011;45951;45.824;8.824;2023-04-25T17:42:32;0.70;;;0.70;;
60078;SDS011;45951;45.824;8.824;2023-04-25T17:48:32;0.85;;;0.80;;
60078;SDS011;45951;45.824;8.824;2023-04-25T17:54:33;1.73;;;1.05;;
60078;SDS011;45951;45.824;8.824;2023-04-25T18:00:33;2.03;;;0.60;;
60078;SDS011;45951;45.824;8.824;2023-04-25T18:06:33;1.50;;;0.70;;
60078;SDS011;45951;45.824;8.824;2023-04-25T18:12:34;2.57;;;1.37;;
60078;SDS011;45951;45.824;8.824;2023-04-25T18:18:34;1.70;;;1.10;;
60078;SDS011;45951;45.824;8.824;2023-04-25T18:24:35;1.25;;;0.90;;
60078;SDS011;45951;45.824;8.824;2023-04-25T18:30:36;1.17;;;0.70;;
60078;SDS011;45951;45.824;8.824;2023-04-25T18:36:36;1.63;;;1.00;;
60078;SDS011;45951;45.824;8.824;2023-04-25T18:42:37;1.38;;;0.95;;
60078;SDS011;45951;45.824;8.824;2023-04-25T18:48:37;1.77;;;0.82;;
60078;SDS011;45951;45.824;8.824;2023-04-25T18:54:37;1.70;;;1.13;;
60078;SDS011;45951;45.824;8.824;2023-04-25T19:00:38;3.00;;;1.20;;
60078;SDS011;45951;45.824;8.824;2023-04-25T19:06:39;2.65;;;1.52;;
60078;SDS011;45951;45.824;8.824;2023-04-25T19:12:39;1.48;;;1.05;;
60078;SDS011;45951;45.824;8.824;2023-04-25T19:18:39;1.38;;;0.90;;
60078;SDS011;45951;45.824;8.824;2023-04-25T19:24:40;1.98;;;1.00;;
60078;SDS011;45951;45.824;8.824;2023-04-25T19:30:40;1.60;;;1.00;;
60078;SDS011;45951;45.824;8.824;2023-04-25T19:36:40;4.00;;;1.65;;
60078;SDS011;45951;45.824;8.824;2023-04-25T19:42:41;2.97;;;1.80;;
60078;SDS011;45951;45.824;8.824;2023-04-25T19:48:41;3.53;;;2.00;;
60078;SDS011;45951;45.824;8.824;2023-04-25T19:54:44;5.50;;;3.70;;
60078;SDS011;45951;45.824;8.824;2023-04-25T20:00:44;3.88;;;2.35;;
60078;SDS011;45951;45.824;8.824;2023-04-25T20:06:45;5.63;;;2.70;;
60078;SDS011;45951;45.824;8.824;2023-04-25T20:12:45;4.47;;;3.00;;
60078;SDS011;45951;45.824;8.824;2023-04-25T20:18:45;3.78;;;2.70;;
60078;SDS011;45951;45.824;8.824;2023-04-25T20:24:46;6.65;;;2.97;;
60078;SDS011;45951;45.824;8.824;2023-04-25T20:30:47;3.28;;;2.10;;
60078;SDS011;45951;45.824;8.824;2023-04-25T20:36:47;3.13;;;2.40;;
60078;SDS011;45951;45.824;8.824;2023-04-25T20:42:47;3.47;;;2.13;;
60078;SDS011;45951;45.824;8.824;2023-04-25T20:48:48;3.95;;;2.10;;
60078;SDS011;45951;45.824;8.824;2023-04-25T20:54:51;2.97;;;2.30;;
60078;SDS011;45951;45.824;8.824;2023-04-25T21:00:53;3.00;;;1.73;;
60078;SDS011;45951;45.824;8.824;2023-04-25T21:06:55;4.15;;;1.90;;
60078;SDS011;45951;45.824;8.824;2023-04-25T21:12:55;3.40;;;2.20;;
60078;SDS011;45951;45.824;8.824;2023-04-25T21:18:57;2.88;;;2.20;;
60078;SDS011;45951;45.824;8.824;2023-04-25T21:24:57;3.97;;;2.42;;
60078;SDS011;45951;45.824;8.824;2023-04-25T21:31:04;2.88;;;2.25;;
60078;SDS011;45951;45.824;8.824;2023-04-25T21:37:05;3.77;;;2.50;;
60078;SDS011;45951;45.824;8.824;2023-04-25T21:43:05;3.67;;;2.55;;
60078;SDS011;45951;45.824;8.824;2023-04-25T21:49:06;3.03;;;1.85;;
60078;SDS011;45951;45.824;8.824;2023-04-25T21:55:07;2.95;;;1.48;;
60078;SDS011;45951;45.824;8.824;2023-04-25T22:01:07;2.92;;;1.38;;
60078;SDS011;45951;45.824;8.824;2023-04-25T22:07:08;1.40;;;1.02;;
60078;SDS011;45951;45.824;8.824;2023-04-25T22:13:12;0.80;;;0.80;;
60078;SDS011;45951;45.824;8.824;2023-04-25T22:19:12;1.73;;;0.80;;
60078;SDS011;45951;45.824;8.824;2023-04-25T22:25:12;1.52;;;1.15;;
60078;SDS011;45951;45.824;8.824;2023-04-25T22:31:12;1.30;;;1.02;;
60078;SDS011;45951;45.824;8.824;2023-04-25T22:37:13;1.40;;;1.10;;
60078;SDS011;45951;45.824;8.824;2023-04-25T22:43:13;1.42;;;0.90;;
60078;SDS011;45951;45.824;8.824;2023-04-25T22:49:14;3.03;;;1.10;;
60078;SDS011;45951;45.824;8.824;2023-04-25T22:55:14;1.55;;;0.98;;
60078;SDS011;45951;45.824;8.824;2023-04-25T23:01:15;2.78;;;1.75;;
60078;SDS011;45951;45.824;8.824;2023-04-25T23:07:16;2.90;;;1.30;;
60078;SDS011;45951;45.824;8.824;2023-04-25T23:13:17;1.95;;;1.10;;
60078;SDS011;45951;45.824;8.824;2023-04-25T23:19:17;3.15;;;1.40;;
60078;SDS011;45951;45.824;8.824;2023-04-25T23:25:17;2.47;;;1.50;;
60078;SDS011;45951;45.824;8.824;2023-04-25T23:31:18;1.47;;;1.17;;
60078;SDS011;45951;45.824;8.824;2023-04-25T23:37:18;3.90;;;1.38;;
60078;SDS011;45951;45.824;8.824;2023-04-25T23:43:18;2.33;;;1.30;;
60078;SDS011;45951;45.824;8.824;2023-04-25T23:49:18;1.20;;;1.00;;
60078;SDS011;45951;45.824;8.824;2023-04-25T23:55:19;2.03;;;0.90;;
